Información del aeropuerto SCTE

Información de pista
Pista 17 Longitud 8694 ft Anchura 148 ft
Elevación 264 ft Umbral ft Rumbo 182
Pista 35 Longitud 8694 ft Anchura 148 ft
Elevación 294 ft Umbral ft Rumbo 2
Frecuencias del aeropuerto
Tipo APP Nombre PUERTO MON Frecuencia 123.7 MHZ
Tipo CNTR Nombre PUERTO MON Frecuencia 128.3 MHZ
Tipo GND Nombre GND Frecuencia 121.9 MHZ
Tipo RDO Nombre PUERTO MON Frecuencia 126.9 MHZ
Tipo TWR Nombre PUERTO MON Frecuencia 118.1 MHZ
Radioayudas del aeropuerto
Tipo NDB Nombre Trapen Frecuencia 325 KHZ
Tipo VOR-DME Nombre Puerto Montt Frecuencia 115700 KHZ
Tipo NDB Nombre El Tepual Frecuencia 305 KHZ
Tipo NDB Nombre Puerto Montt Frecuencia 400 KHZ
Información meteorológica del aeropuerto y NOTAM
ADDS - METARS form results

(1845 UTC 08 December 2022)
Data provider http://aviationweather.gov/metar/data/
 
METAR text: SCTE 081831Z 34018G28KT 9999 FEW037 21/12 Q1007 NOSIG
Conditions at: SCTE (PUERTO MONTT/TEP, CL) observed 1831 UTC 08 December 2022
Temperature: 21.0°C (70°F)
Dewpoint: 12.0°C (54°F) [RH = 56%]
Pressure (altimeter): 29.73 inches Hg (1007.0 mb)
Winds: from the NNW (340 degrees) at 21 MPH (18 knots; 9.3 m/s)
gusting to 32 MPH (28 knots; 14.4 m/s)
Visibility: 6 or more miles (10+ km)
Ceiling: at least 12,000 feet AGL
Clouds: few clouds at 3700 feet AGL
Weather: no significant weather observed at this time

METAR text: SCTE 081813Z 34017KT 9999 FEW037 SCT074 21/12 Q1008 NOSIG
Conditions at: SCTE (PUERTO MONTT/TEP, CL) observed 1813 UTC 08 December 2022
Temperature: 21.0°C (70°F)
Dewpoint: 12.0°C (54°F) [RH = 56%]
Pressure (altimeter): 29.76 inches Hg (1008.0 mb)
Winds: from the NNW (340 degrees) at 20 MPH (17 knots; 8.7 m/s)
Visibility: 6 or more miles (10+ km)
Ceiling: at least 12,000 feet AGL
Clouds: few clouds at 3700 feet AGL
scattered clouds at 7400 feet AGL
Weather: no significant weather observed at this time

METAR text: SCTE 081800Z 34016G26KT 9999 BKN036 BKN076 22/13 Q1008 NOSIG
Conditions at: SCTE (PUERTO MONTT/TEP, CL) observed 1800 UTC 08 December 2022
Temperature: 22.0°C (72°F)
Dewpoint: 13.0°C (55°F) [RH = 57%]
Pressure (altimeter): 29.76 inches Hg (1008.0 mb)
Winds: from the NNW (340 degrees) at 18 MPH (16 knots; 8.2 m/s)
gusting to 30 MPH (26 knots; 13.4 m/s)
Visibility: 6 or more miles (10+ km)
Ceiling: 3600 feet AGL
Clouds: broken clouds at 3600 feet AGL
broken clouds at 7600 feet AGL
Weather: no significant weather observed at this time

METAR text: SCTE 081747Z 35016G26KT 9999 FEW039 SCT067 BKN083 21/13 Q1008 NOSIG
Conditions at: SCTE (PUERTO MONTT/TEP, CL) observed 1747 UTC 08 December 2022
Temperature: 21.0°C (70°F)
Dewpoint: 13.0°C (55°F) [RH = 60%]
Pressure (altimeter): 29.76 inches Hg (1008.0 mb)
Winds: from the N (350 degrees) at 18 MPH (16 knots; 8.2 m/s)
gusting to 30 MPH (26 knots; 13.4 m/s)
Visibility: 6 or more miles (10+ km)
Ceiling: 8300 feet AGL
Clouds: few clouds at 3900 feet AGL
scattered clouds at 6700 feet AGL
broken clouds at 8300 feet AGL
Weather: no significant weather observed at this time

Forecast for: SCTE (PUERTO MONTT/TEP, CL)
Text: TAF SCTE 081620Z 0818/0918 36010KT 9999 SCT030 BKN045 TX20/0819Z TN12/0911Z
Forecast period: 1800 UTC 08 December 2022 to 0000 UTC 09 December 2022
Forecast type: FROM: standard forecast or significant change
Winds: from the N (360 degrees) at 12 MPH (10 knots; 5.1 m/s)
Visibility: 6 or more miles (10+ km)
Ceiling: 4500 feet AGL
Clouds: scattered clouds at 3000 feet AGL
broken clouds at 4500 feet AGL
Weather: no significant weather forecast for this period
Text: TEMPO 0818/0823 30015G25KT 8000 -SHRA BKN030
Forecast period: 1800 to 2300 UTC 08 December 2022
Forecast type: TEMPORARY: The following changes expected for less than half the time period
Winds: from the WNW (300 degrees) at 17 MPH (15 knots; 7.7 m/s)
gusting to 29 MPH (25 knots; 12.9 m/s)
Visibility: 5 miles (8 km)
Ceiling: 3000 feet AGL
Clouds: broken clouds at 3000 feet AGL
Weather: -SHRA  (light rain showers)
Text: BECMG 0900/0902 30005KT 8000 -SHRA OVC020
Forecast period: 0000 to 0400 UTC 09 December 2022
Forecast type: BECOMING: Conditions expected to become as follows by 0200 UTC 09 December 2022
Winds: from the WNW (300 degrees) at 6 MPH (5 knots; 2.6 m/s)
Visibility: 5 miles (8 km)
Ceiling: 2000 feet AGL
Clouds: overcast cloud deck at 2000 feet AGL
Weather: -SHRA  (light rain showers)
Text: BECMG 0904/0906 9999 NSW BKN025
Forecast period: 0400 to 1800 UTC 09 December 2022
Forecast type: BECOMING: Conditions expected to become as follows by 0600 UTC 09 December 2022
Winds: from the WNW (300 degrees) at 6 MPH (5 knots; 2.6 m/s)
Visibility: 6 or more miles (10+ km)
Ceiling: 2500 feet AGL
Clouds: broken clouds at 2500 feet AGL
Weather: NSW  (no significant weather)
Text: TEMPO 0910/0914 8000 -SHRA
Forecast period: 1000 to 1400 UTC 09 December 2022
Forecast type: TEMPORARY: The following changes expected for less than half the time period
Visibility: 5 miles (8 km)
Ceiling: unknown
Clouds: missing
Weather: -SHRA  (light rain showers)